sensor_id;sensor_type;location;lat;lon;timestamp;P1;durP1;ratioP1;P2;durP2;ratioP2
68910;SDS011;55953;51.650;-0.522;2023-02-28T00:01:32;11.10;;;4.00;;
68910;SDS011;55953;51.650;-0.522;2023-02-28T00:04:00;11.10;;;3.60;;
68910;SDS011;55953;51.650;-0.522;2023-02-28T00:06:29;10.20;;;3.90;;
68910;SDS011;55953;51.650;-0.522;2023-02-28T00:08:57;11.80;;;3.70;;
68910;SDS011;55953;51.650;-0.522;2023-02-28T00:11:25;9.70;;;3.40;;
68910;SDS011;55953;51.650;-0.522;2023-02-28T00:13:53;11.50;;;3.60;;
68910;SDS011;55953;51.650;-0.522;2023-02-28T00:16:22;11.90;;;3.70;;
68910;SDS011;55953;51.650;-0.522;2023-02-28T00:18:50;11.50;;;3.50;;
68910;SDS011;55953;51.650;-0.522;2023-02-28T00:21:19;8.40;;;3.70;;
68910;SDS011;55953;51.650;-0.522;2023-02-28T00:23:48;14.30;;;3.60;;
68910;SDS011;55953;51.650;-0.522;2023-02-28T00:26:16;11.00;;;3.10;;
68910;SDS011;55953;51.650;-0.522;2023-02-28T00:28:45;11.40;;;3.60;;
68910;SDS011;55953;51.650;-0.522;2023-02-28T00:31:13;10.80;;;3.90;;
68910;SDS011;55953;51.650;-0.522;2023-02-28T00:33:41;10.40;;;4.00;;
68910;SDS011;55953;51.650;-0.522;2023-02-28T00:36:10;11.00;;;4.30;;
68910;SDS011;55953;51.650;-0.522;2023-02-28T00:38:39;11.00;;;3.80;;
68910;SDS011;55953;51.650;-0.522;2023-02-28T00:41:09;15.70;;;3.90;;
68910;SDS011;55953;51.650;-0.522;2023-02-28T00:43:38;13.60;;;4.30;;
68910;SDS011;55953;51.650;-0.522;2023-02-28T00:46:07;10.10;;;4.30;;
68910;SDS011;55953;51.650;-0.522;2023-02-28T00:48:35;9.90;;;4.00;;
68910;SDS011;55953;51.650;-0.522;2023-02-28T00:51:04;13.40;;;4.10;;
68910;SDS011;55953;51.650;-0.522;2023-02-28T00:53:32;15.20;;;4.60;;
68910;SDS011;55953;51.650;-0.522;2023-02-28T00:56:00;12.80;;;4.00;;
68910;SDS011;55953;51.650;-0.522;2023-02-28T00:58:28;12.60;;;3.90;;
68910;SDS011;55953;51.650;-0.522;2023-02-28T01:00:57;14.70;;;4.50;;
68910;SDS011;55953;51.650;-0.522;2023-02-28T01:03:25;12.30;;;4.10;;
68910;SDS011;55953;51.650;-0.522;2023-02-28T01:05:53;10.50;;;4.20;;
68910;SDS011;55953;51.650;-0.522;2023-02-28T01:08:21;9.40;;;3.90;;
68910;SDS011;55953;51.650;-0.522;2023-02-28T01:10:50;10.80;;;3.90;;
68910;SDS011;55953;51.650;-0.522;2023-02-28T01:13:19;11.20;;;4.60;;
68910;SDS011;55953;51.650;-0.522;2023-02-28T01:15:52;14.40;;;4.10;;
68910;SDS011;55953;51.650;-0.522;2023-02-28T01:18:22;11.30;;;4.20;;
68910;SDS011;55953;51.650;-0.522;2023-02-28T01:20:50;9.50;;;3.90;;
68910;SDS011;55953;51.650;-0.522;2023-02-28T01:23:21;15.50;;;4.10;;
68910;SDS011;55953;51.650;-0.522;2023-02-28T01:25:51;15.10;;;4.50;;
68910;SDS011;55953;51.650;-0.522;2023-02-28T01:28:20;12.90;;;4.00;;
68910;SDS011;55953;51.650;-0.522;2023-02-28T01:30:51;9.30;;;3.60;;
68910;SDS011;55953;51.650;-0.522;2023-02-28T01:33:19;9.30;;;3.80;;
68910;SDS011;55953;51.650;-0.522;2023-02-28T01:35:47;9.10;;;4.50;;
68910;SDS011;55953;51.650;-0.522;2023-02-28T01:38:15;13.10;;;4.60;;
68910;SDS011;55953;51.650;-0.522;2023-02-28T01:40:50;12.90;;;4.90;;
68910;SDS011;55953;51.650;-0.522;2023-02-28T01:43:30;13.10;;;5.40;;
68910;SDS011;55953;51.650;-0.522;2023-02-28T01:45:59;8.90;;;5.00;;
68910;SDS011;55953;51.650;-0.522;2023-02-28T01:48:33;14.00;;;5.80;;
68910;SDS011;55953;51.650;-0.522;2023-02-28T01:51:10;15.00;;;5.40;;
68910;SDS011;55953;51.650;-0.522;2023-02-28T01:53:48;13.60;;;5.80;;
68910;SDS011;55953;51.650;-0.522;2023-02-28T01:56:24;16.50;;;5.50;;
68910;SDS011;55953;51.650;-0.522;2023-02-28T01:58:57;15.10;;;5.30;;
68910;SDS011;55953;51.650;-0.522;2023-02-28T02:01:27;13.40;;;5.30;;
68910;SDS011;55953;51.650;-0.522;2023-02-28T02:03:58;15.30;;;5.40;;
68910;SDS011;55953;51.650;-0.522;2023-02-28T02:06:33;12.00;;;5.60;;
68910;SDS011;55953;51.650;-0.522;2023-02-28T02:09:11;12.90;;;5.30;;
68910;SDS011;55953;51.650;-0.522;2023-02-28T02:11:41;18.00;;;5.50;;
68910;SDS011;55953;51.650;-0.522;2023-02-28T02:17:21;18.30;;;5.50;;
68910;SDS011;55953;51.650;-0.522;2023-02-28T02:23:02;11.80;;;4.70;;
68910;SDS011;55953;51.650;-0.522;2023-02-28T02:25:45;12.50;;;5.00;;
68910;SDS011;55953;51.650;-0.522;2023-02-28T02:28:54;11.40;;;5.10;;
68910;SDS011;55953;51.650;-0.522;2023-02-28T02:42:39;13.20;;;4.80;;
68910;SDS011;55953;51.650;-0.522;2023-02-28T02:45:23;11.90;;;4.90;;
68910;SDS011;55953;51.650;-0.522;2023-02-28T02:47:56;10.10;;;5.00;;
68910;SDS011;55953;51.650;-0.522;2023-02-28T02:50:34;10.50;;;4.90;;
68910;SDS011;55953;51.650;-0.522;2023-02-28T02:53:07;14.50;;;5.10;;
68910;SDS011;55953;51.650;-0.522;2023-02-28T02:55:40;9.50;;;4.60;;
68910;SDS011;55953;51.650;-0.522;2023-02-28T02:58:18;12.90;;;5.00;;
68910;SDS011;55953;51.650;-0.522;2023-02-28T03:00:54;9.90;;;4.20;;
68910;SDS011;55953;51.650;-0.522;2023-02-28T03:03:26;14.20;;;4.40;;
68910;SDS011;55953;51.650;-0.522;2023-02-28T03:05:59;13.40;;;4.10;;
68910;SDS011;55953;51.650;-0.522;2023-02-28T03:08:34;11.00;;;4.50;;
68910;SDS011;55953;51.650;-0.522;2023-02-28T03:11:07;14.50;;;4.60;;
68910;SDS011;55953;51.650;-0.522;2023-02-28T03:16:42;8.70;;;3.90;;
68910;SDS011;55953;51.650;-0.522;2023-02-28T03:19:45;8.90;;;3.70;;
68910;SDS011;55953;51.650;-0.522;2023-02-28T03:25:33;6.90;;;3.80;;
68910;SDS011;55953;51.650;-0.522;2023-02-28T03:28:27;9.20;;;3.90;;
68910;SDS011;55953;51.650;-0.522;2023-02-28T03:31:30;8.30;;;3.90;;
68910;SDS011;55953;51.650;-0.522;2023-02-28T03:36:44;11.70;;;3.90;;
68910;SDS011;55953;51.650;-0.522;2023-02-28T03:40:11;8.40;;;3.50;;
68910;SDS011;55953;51.650;-0.522;2023-02-28T03:42:27;11.50;;;4.10;;
68910;SDS011;55953;51.650;-0.522;2023-02-28T03:45:01;6.90;;;3.40;;
68910;SDS011;55953;51.650;-0.522;2023-02-28T03:47:41;7.60;;;3.50;;
68910;SDS011;55953;51.650;-0.522;2023-02-28T03:50:27;11.30;;;3.40;;
68910;SDS011;55953;51.650;-0.522;2023-02-28T03:55:42;12.40;;;3.50;;
68910;SDS011;55953;51.650;-0.522;2023-02-28T03:58:31;7.00;;;3.50;;
68910;SDS011;55953;51.650;-0.522;2023-02-28T04:01:25;10.30;;;3.70;;
68910;SDS011;55953;51.650;-0.522;2023-02-28T04:03:59;6.90;;;3.30;;
68910;SDS011;55953;51.650;-0.522;2023-02-28T04:06:31;6.40;;;3.40;;
68910;SDS011;55953;51.650;-0.522;2023-02-28T04:09:00;11.00;;;3.80;;
68910;SDS011;55953;51.650;-0.522;2023-02-28T04:14:05;9.50;;;3.10;;
68910;SDS011;55953;51.650;-0.522;2023-02-28T04:16:37;7.90;;;3.10;;
68910;SDS011;55953;51.650;-0.522;2023-02-28T04:19:08;10.30;;;3.60;;
68910;SDS011;55953;51.650;-0.522;2023-02-28T04:21:40;7.20;;;3.10;;
68910;SDS011;55953;51.650;-0.522;2023-02-28T04:24:13;7.00;;;2.80;;
68910;SDS011;55953;51.650;-0.522;2023-02-28T04:26:45;9.40;;;3.40;;
68910;SDS011;55953;51.650;-0.522;2023-02-28T04:29:26;6.70;;;3.20;;
68910;SDS011;55953;51.650;-0.522;2023-02-28T04:31:56;8.10;;;3.50;;
68910;SDS011;55953;51.650;-0.522;2023-02-28T04:34:28;6.50;;;2.80;;
68910;SDS011;55953;51.650;-0.522;2023-02-28T04:36:58;7.90;;;3.40;;
68910;SDS011;55953;51.650;-0.522;2023-02-28T04:39:43;6.70;;;3.30;;
68910;SDS011;55953;51.650;-0.522;2023-02-28T04:42:12;7.30;;;3.70;;
68910;SDS011;55953;51.650;-0.522;2023-02-28T04:44:40;9.30;;;4.00;;
68910;SDS011;55953;51.650;-0.522;2023-02-28T04:47:08;10.80;;;4.30;;
68910;SDS011;55953;51.650;-0.522;2023-02-28T04:49:36;8.90;;;3.90;;
68910;SDS011;55953;51.650;-0.522;2023-02-28T04:52:04;12.60;;;5.10;;
68910;SDS011;55953;51.650;-0.522;2023-02-28T04:54:34;10.20;;;4.80;;
68910;SDS011;55953;51.650;-0.522;2023-02-28T04:57:02;10.00;;;4.60;;
68910;SDS011;55953;51.650;-0.522;2023-02-28T04:59:31;9.00;;;4.40;;
68910;SDS011;55953;51.650;-0.522;2023-02-28T05:02:00;10.70;;;5.70;;
68910;SDS011;55953;51.650;-0.522;2023-02-28T05:04:35;10.80;;;5.40;;
68910;SDS011;55953;51.650;-0.522;2023-02-28T05:07:03;12.50;;;5.70;;
68910;SDS011;55953;51.650;-0.522;2023-02-28T05:09:31;11.90;;;5.30;;
68910;SDS011;55953;51.650;-0.522;2023-02-28T05:12:00;11.70;;;6.30;;
68910;SDS011;55953;51.650;-0.522;2023-02-28T05:14:28;13.20;;;6.50;;
68910;SDS011;55953;51.650;-0.522;2023-02-28T05:16:56;12.50;;;6.50;;
68910;SDS011;55953;51.650;-0.522;2023-02-28T05:19:24;14.20;;;6.20;;
68910;SDS011;55953;51.650;-0.522;2023-02-28T05:21:54;13.70;;;6.90;;
68910;SDS011;55953;51.650;-0.522;2023-02-28T05:24:22;14.80;;;6.90;;
68910;SDS011;55953;51.650;-0.522;2023-02-28T05:26:52;14.50;;;7.10;;
68910;SDS011;55953;51.650;-0.522;2023-02-28T05:29:22;17.60;;;7.20;;
68910;SDS011;55953;51.650;-0.522;2023-02-28T05:31:50;12.50;;;6.60;;
68910;SDS011;55953;51.650;-0.522;2023-02-28T05:34:18;12.90;;;6.90;;
68910;SDS011;55953;51.650;-0.522;2023-02-28T05:36:46;14.50;;;7.20;;
68910;SDS011;55953;51.650;-0.522;2023-02-28T05:39:14;16.30;;;6.50;;
68910;SDS011;55953;51.650;-0.522;2023-02-28T05:41:42;15.60;;;7.20;;
68910;SDS011;55953;51.650;-0.522;2023-02-28T05:44:11;14.80;;;7.00;;
68910;SDS011;55953;51.650;-0.522;2023-02-28T05:46:39;15.60;;;6.70;;
68910;SDS011;55953;51.650;-0.522;2023-02-28T05:49:07;16.10;;;7.30;;
68910;SDS011;55953;51.650;-0.522;2023-02-28T05:51:35;15.90;;;6.20;;
68910;SDS011;55953;51.650;-0.522;2023-02-28T05:54:07;14.40;;;6.80;;
68910;SDS011;55953;51.650;-0.522;2023-02-28T05:56:36;14.70;;;6.80;;
68910;SDS011;55953;51.650;-0.522;2023-02-28T05:59:06;18.20;;;7.00;;
68910;SDS011;55953;51.650;-0.522;2023-02-28T06:01:42;14.90;;;6.80;;
68910;SDS011;55953;51.650;-0.522;2023-02-28T06:04:20;15.50;;;7.20;;
68910;SDS011;55953;51.650;-0.522;2023-02-28T06:06:58;14.40;;;6.80;;
68910;SDS011;55953;51.650;-0.522;2023-02-28T06:09:26;15.20;;;6.90;;
68910;SDS011;55953;51.650;-0.522;2023-02-28T06:11:54;13.90;;;6.80;;
68910;SDS011;55953;51.650;-0.522;2023-02-28T06:14:25;14.20;;;7.10;;
68910;SDS011;55953;51.650;-0.522;2023-02-28T06:16:53;13.90;;;6.70;;
68910;SDS011;55953;51.650;-0.522;2023-02-28T06:19:22;19.60;;;7.30;;
68910;SDS011;55953;51.650;-0.522;2023-02-28T06:21:54;14.60;;;7.20;;
68910;SDS011;55953;51.650;-0.522;2023-02-28T06:24:25;16.80;;;7.00;;
68910;SDS011;55953;51.650;-0.522;2023-02-28T06:26:55;17.00;;;7.50;;
68910;SDS011;55953;51.650;-0.522;2023-02-28T06:29:23;14.00;;;6.20;;
68910;SDS011;55953;51.650;-0.522;2023-02-28T06:31:51;14.10;;;6.70;;
68910;SDS011;55953;51.650;-0.522;2023-02-28T06:34:19;15.30;;;6.50;;
68910;SDS011;55953;51.650;-0.522;2023-02-28T06:36:50;13.20;;;6.50;;
68910;SDS011;55953;51.650;-0.522;2023-02-28T06:39:19;15.80;;;6.30;;
68910;SDS011;55953;51.650;-0.522;2023-02-28T06:41:47;12.50;;;6.00;;
68910;SDS011;55953;51.650;-0.522;2023-02-28T06:44:23;14.70;;;6.30;;
68910;SDS011;55953;51.650;-0.522;2023-02-28T06:46:51;12.20;;;5.70;;
68910;SDS011;55953;51.650;-0.522;2023-02-28T06:49:19;11.70;;;5.40;;
68910;SDS011;55953;51.650;-0.522;2023-02-28T06:51:47;13.40;;;5.60;;
68910;SDS011;55953;51.650;-0.522;2023-02-28T06:54:15;13.50;;;6.50;;
68910;SDS011;55953;51.650;-0.522;2023-02-28T06:56:43;13.80;;;5.30;;
68910;SDS011;55953;51.650;-0.522;2023-02-28T06:59:11;13.80;;;5.90;;
68910;SDS011;55953;51.650;-0.522;2023-02-28T07:01:39;10.80;;;5.00;;
68910;SDS011;55953;51.650;-0.522;2023-02-28T07:04:07;12.90;;;5.60;;
68910;SDS011;55953;51.650;-0.522;2023-02-28T07:06:35;12.90;;;5.10;;
68910;SDS011;55953;51.650;-0.522;2023-02-28T07:09:03;12.90;;;5.20;;
68910;SDS011;55953;51.650;-0.522;2023-02-28T07:11:31;14.50;;;5.80;;
68910;SDS011;55953;51.650;-0.522;2023-02-28T07:13:59;13.30;;;5.30;;
68910;SDS011;55953;51.650;-0.522;2023-02-28T07:16:27;10.50;;;4.90;;
68910;SDS011;55953;51.650;-0.522;2023-02-28T07:18:55;11.50;;;5.20;;
68910;SDS011;55953;51.650;-0.522;2023-02-28T07:21:23;12.80;;;5.70;;
68910;SDS011;55953;51.650;-0.522;2023-02-28T07:23:51;13.80;;;5.50;;
68910;SDS011;55953;51.650;-0.522;2023-02-28T07:26:20;13.90;;;5.40;;
68910;SDS011;55953;51.650;-0.522;2023-02-28T07:28:48;11.10;;;4.80;;
68910;SDS011;55953;51.650;-0.522;2023-02-28T07:31:17;12.50;;;5.20;;
68910;SDS011;55953;51.650;-0.522;2023-02-28T07:33:46;12.50;;;5.10;;
68910;SDS011;55953;51.650;-0.522;2023-02-28T07:36:16;10.80;;;5.10;;
68910;SDS011;55953;51.650;-0.522;2023-02-28T07:38:47;12.20;;;5.20;;
68910;SDS011;55953;51.650;-0.522;2023-02-28T07:41:20;13.70;;;5.50;;
68910;SDS011;55953;51.650;-0.522;2023-02-28T07:43:49;12.20;;;4.80;;
68910;SDS011;55953;51.650;-0.522;2023-02-28T07:46:19;15.20;;;5.40;;
68910;SDS011;55953;51.650;-0.522;2023-02-28T07:48:48;12.00;;;5.30;;
68910;SDS011;55953;51.650;-0.522;2023-02-28T07:51:16;12.60;;;5.20;;
68910;SDS011;55953;51.650;-0.522;2023-02-28T07:53:44;12.10;;;5.10;;
68910;SDS011;55953;51.650;-0.522;2023-02-28T07:56:12;12.80;;;4.50;;
68910;SDS011;55953;51.650;-0.522;2023-02-28T07:58:40;12.00;;;4.80;;
68910;SDS011;55953;51.650;-0.522;2023-02-28T08:01:09;10.70;;;4.50;;
68910;SDS011;55953;51.650;-0.522;2023-02-28T08:03:39;11.20;;;4.80;;
68910;SDS011;55953;51.650;-0.522;2023-02-28T08:06:14;9.60;;;4.30;;
68910;SDS011;55953;51.650;-0.522;2023-02-28T08:08:45;9.90;;;4.00;;
68910;SDS011;55953;51.650;-0.522;2023-02-28T08:11:14;7.70;;;3.40;;
68910;SDS011;55953;51.650;-0.522;2023-02-28T08:13:43;8.00;;;3.70;;
68910;SDS011;55953;51.650;-0.522;2023-02-28T08:16:13;9.30;;;4.10;;
68910;SDS011;55953;51.650;-0.522;2023-02-28T08:18:50;8.40;;;3.30;;
68910;SDS011;55953;51.650;-0.522;2023-02-28T08:21:20;7.50;;;3.40;;
68910;SDS011;55953;51.650;-0.522;2023-02-28T08:23:49;8.20;;;3.70;;
68910;SDS011;55953;51.650;-0.522;2023-02-28T08:26:18;6.50;;;3.40;;
68910;SDS011;55953;51.650;-0.522;2023-02-28T08:28:46;9.40;;;4.10;;
68910;SDS011;55953;51.650;-0.522;2023-02-28T08:31:16;8.50;;;3.40;;
68910;SDS011;55953;51.650;-0.522;2023-02-28T08:33:45;7.10;;;3.60;;
68910;SDS011;55953;51.650;-0.522;2023-02-28T08:36:13;7.60;;;3.20;;
68910;SDS011;55953;51.650;-0.522;2023-02-28T08:38:41;5.90;;;2.60;;
68910;SDS011;55953;51.650;-0.522;2023-02-28T08:41:11;6.30;;;3.00;;
68910;SDS011;55953;51.650;-0.522;2023-02-28T08:43:40;5.40;;;2.50;;
68910;SDS011;55953;51.650;-0.522;2023-02-28T08:46:11;4.10;;;2.10;;
68910;SDS011;55953;51.650;-0.522;2023-02-28T08:48:41;4.50;;;2.00;;
68910;SDS011;55953;51.650;-0.522;2023-02-28T08:51:12;5.30;;;2.30;;
68910;SDS011;55953;51.650;-0.522;2023-02-28T08:53:44;4.80;;;2.20;;
68910;SDS011;55953;51.650;-0.522;2023-02-28T08:56:14;4.60;;;2.10;;
68910;SDS011;55953;51.650;-0.522;2023-02-28T08:58:44;4.50;;;1.90;;
68910;SDS011;55953;51.650;-0.522;2023-02-28T09:03:42;5.00;;;2.10;;
68910;SDS011;55953;51.650;-0.522;2023-02-28T09:06:12;4.20;;;1.60;;
68910;SDS011;55953;51.650;-0.522;2023-02-28T09:08:41;2.80;;;1.50;;
68910;SDS011;55953;51.650;-0.522;2023-02-28T09:11:10;4.10;;;1.80;;
68910;SDS011;55953;51.650;-0.522;2023-02-28T09:13:39;3.20;;;1.60;;
68910;SDS011;55953;51.650;-0.522;2023-02-28T09:16:10;2.90;;;1.40;;
68910;SDS011;55953;51.650;-0.522;2023-02-28T09:18:40;2.50;;;1.40;;
68910;SDS011;55953;51.650;-0.522;2023-02-28T09:21:11;2.10;;;1.20;;
68910;SDS011;55953;51.650;-0.522;2023-02-28T09:23:43;3.20;;;1.30;;
68910;SDS011;55953;51.650;-0.522;2023-02-28T09:26:17;2.50;;;1.40;;
68910;SDS011;55953;51.650;-0.522;2023-02-28T09:28:51;2.50;;;1.40;;
68910;SDS011;55953;51.650;-0.522;2023-02-28T09:31:25;2.10;;;1.30;;
68910;SDS011;55953;51.650;-0.522;2023-02-28T09:33:57;3.80;;;1.30;;
68910;SDS011;55953;51.650;-0.522;2023-02-28T09:36:26;1.90;;;1.20;;
68910;SDS011;55953;51.650;-0.522;2023-02-28T09:39:12;3.00;;;1.30;;
68910;SDS011;55953;51.650;-0.522;2023-02-28T09:41:44;2.20;;;1.20;;
68910;SDS011;55953;51.650;-0.522;2023-02-28T09:44:37;2.30;;;1.20;;
68910;SDS011;55953;51.650;-0.522;2023-02-28T09:50:17;3.00;;;1.30;;
68910;SDS011;55953;51.650;-0.522;2023-02-28T09:53:31;2.10;;;1.10;;
68910;SDS011;55953;51.650;-0.522;2023-02-28T09:58:47;2.30;;;1.10;;
68910;SDS011;55953;51.650;-0.522;2023-02-28T10:01:27;2.30;;;1.20;;
68910;SDS011;55953;51.650;-0.522;2023-02-28T10:04:18;2.20;;;1.40;;
68910;SDS011;55953;51.650;-0.522;2023-02-28T10:07:36;2.00;;;1.10;;
68910;SDS011;55953;51.650;-0.522;2023-02-28T10:10:17;2.00;;;1.20;;
68910;SDS011;55953;51.650;-0.522;2023-02-28T10:12:47;2.10;;;1.10;;
68910;SDS011;55953;51.650;-0.522;2023-02-28T10:15:19;3.00;;;1.20;;
68910;SDS011;55953;51.650;-0.522;2023-02-28T10:17:56;2.80;;;1.20;;
68910;SDS011;55953;51.650;-0.522;2023-02-28T10:20:39;1.70;;;1.20;;
68910;SDS011;55953;51.650;-0.522;2023-02-28T10:23:32;2.50;;;1.20;;
68910;SDS011;55953;51.650;-0.522;2023-02-28T10:26:13;2.50;;;1.80;;
68910;SDS011;55953;51.650;-0.522;2023-02-28T10:28:44;3.90;;;1.70;;
68910;SDS011;55953;51.650;-0.522;2023-02-28T10:31:19;2.50;;;1.70;;
68910;SDS011;55953;51.650;-0.522;2023-02-28T10:33:48;2.70;;;1.80;;
68910;SDS011;55953;51.650;-0.522;2023-02-28T10:36:18;3.30;;;2.00;;
68910;SDS011;55953;51.650;-0.522;2023-02-28T10:38:48;4.30;;;2.30;;
68910;SDS011;55953;51.650;-0.522;2023-02-28T10:41:37;4.80;;;2.50;;
68910;SDS011;55953;51.650;-0.522;2023-02-28T10:46:50;4.00;;;2.30;;
68910;SDS011;55953;51.650;-0.522;2023-02-28T10:49:28;4.70;;;2.70;;
68910;SDS011;55953;51.650;-0.522;2023-02-28T10:51:59;4.50;;;2.50;;
68910;SDS011;55953;51.650;-0.522;2023-02-28T10:54:36;4.80;;;2.60;;
68910;SDS011;55953;51.650;-0.522;2023-02-28T10:57:22;3.40;;;2.20;;
68910;SDS011;55953;51.650;-0.522;2023-02-28T11:00:14;3.50;;;1.90;;
68910;SDS011;55953;51.650;-0.522;2023-02-28T11:02:49;4.50;;;2.10;;
68910;SDS011;55953;51.650;-0.522;2023-02-28T11:05:31;4.10;;;2.30;;
68910;SDS011;55953;51.650;-0.522;2023-02-28T11:08:14;3.10;;;2.00;;
68910;SDS011;55953;51.650;-0.522;2023-02-28T11:10:48;4.10;;;2.30;;
68910;SDS011;55953;51.650;-0.522;2023-02-28T11:13:27;3.60;;;1.80;;
68910;SDS011;55953;51.650;-0.522;2023-02-28T11:16:03;4.80;;;1.90;;
68910;SDS011;55953;51.650;-0.522;2023-02-28T11:18:43;3.00;;;1.70;;
68910;SDS011;55953;51.650;-0.522;2023-02-28T11:21:31;3.40;;;1.90;;
68910;SDS011;55953;51.650;-0.522;2023-02-28T11:24:22;2.70;;;1.80;;
68910;SDS011;55953;51.650;-0.522;2023-02-28T11:26:54;4.20;;;1.90;;
68910;SDS011;55953;51.650;-0.522;2023-02-28T11:29:32;4.00;;;2.20;;
68910;SDS011;55953;51.650;-0.522;2023-02-28T11:32:07;2.90;;;1.70;;
68910;SDS011;55953;51.650;-0.522;2023-02-28T11:34:41;3.20;;;2.00;;
68910;SDS011;55953;51.650;-0.522;2023-02-28T11:37:16;2.90;;;1.90;;
68910;SDS011;55953;51.650;-0.522;2023-02-28T11:39:46;5.20;;;2.50;;
68910;SDS011;55953;51.650;-0.522;2023-02-28T11:47:56;4.90;;;2.20;;
68910;SDS011;55953;51.650;-0.522;2023-02-28T11:53:23;4.60;;;2.60;;
68910;SDS011;55953;51.650;-0.522;2023-02-28T11:56:23;4.80;;;2.20;;
68910;SDS011;55953;51.650;-0.522;2023-02-28T12:02:15;4.10;;;2.20;;
68910;SDS011;55953;51.650;-0.522;2023-02-28T12:05:13;4.00;;;2.40;;
68910;SDS011;55953;51.650;-0.522;2023-02-28T12:08:00;4.80;;;2.50;;
68910;SDS011;55953;51.650;-0.522;2023-02-28T12:20:26;4.50;;;2.30;;
68910;SDS011;55953;51.650;-0.522;2023-02-28T12:29:17;3.50;;;1.60;;
68910;SDS011;55953;51.650;-0.522;2023-02-28T12:32:13;4.80;;;2.10;;
68910;SDS011;55953;51.650;-0.522;2023-02-28T12:34:49;2.90;;;1.40;;
68910;SDS011;55953;51.650;-0.522;2023-02-28T12:37:29;3.50;;;1.60;;
68910;SDS011;55953;51.650;-0.522;2023-02-28T12:40:12;2.80;;;1.50;;
68910;SDS011;55953;51.650;-0.522;2023-02-28T12:42:51;3.70;;;1.80;;
68910;SDS011;55953;51.650;-0.522;2023-02-28T12:45:50;3.20;;;1.50;;
68910;SDS011;55953;51.650;-0.522;2023-02-28T12:48:31;3.20;;;1.60;;
68910;SDS011;55953;51.650;-0.522;2023-02-28T12:51:06;3.40;;;1.70;;
68910;SDS011;55953;51.650;-0.522;2023-02-28T12:56:30;2.20;;;1.20;;
68910;SDS011;55953;51.650;-0.522;2023-02-28T13:10:48;5.40;;;2.50;;
68910;SDS011;55953;51.650;-0.522;2023-02-28T13:13:25;3.60;;;1.80;;
68910;SDS011;55953;51.650;-0.522;2023-02-28T13:18:40;3.90;;;1.80;;
68910;SDS011;55953;51.650;-0.522;2023-02-28T13:21:27;3.50;;;2.00;;
68910;SDS011;55953;51.650;-0.522;2023-02-28T13:24:00;4.00;;;2.10;;
68910;SDS011;55953;51.650;-0.522;2023-02-28T13:29:01;4.70;;;2.10;;
68910;SDS011;55953;51.650;-0.522;2023-02-28T13:40:06;2.40;;;1.60;;
68910;SDS011;55953;51.650;-0.522;2023-02-28T13:47:44;3.20;;;1.80;;
68910;SDS011;55953;51.650;-0.522;2023-02-28T14:01:16;3.90;;;1.60;;
68910;SDS011;55953;51.650;-0.522;2023-02-28T14:07:06;4.40;;;1.80;;
68910;SDS011;55953;51.650;-0.522;2023-02-28T14:09:38;3.20;;;1.80;;
68910;SDS011;55953;51.650;-0.522;2023-02-28T14:21:02;3.60;;;1.90;;
68910;SDS011;55953;51.650;-0.522;2023-02-28T14:24:21;3.20;;;1.70;;
68910;SDS011;55953;51.650;-0.522;2023-02-28T14:26:58;2.60;;;1.50;;
68910;SDS011;55953;51.650;-0.522;2023-02-28T14:38:19;3.70;;;2.00;;
68910;SDS011;55953;51.650;-0.522;2023-02-28T14:40:55;3.40;;;2.30;;
68910;SDS011;55953;51.650;-0.522;2023-02-28T14:43:27;4.60;;;2.50;;
68910;SDS011;55953;51.650;-0.522;2023-02-28T14:46:03;10.50;;;3.70;;
68910;SDS011;55953;51.650;-0.522;2023-02-28T14:48:34;7.30;;;2.70;;
68910;SDS011;55953;51.650;-0.522;2023-02-28T14:51:03;6.50;;;1.70;;
68910;SDS011;55953;51.650;-0.522;2023-02-28T14:53:36;3.20;;;1.40;;
68910;SDS011;55953;51.650;-0.522;2023-02-28T14:56:05;1.70;;;1.20;;
68910;SDS011;55953;51.650;-0.522;2023-02-28T14:58:33;4.00;;;1.40;;
68910;SDS011;55953;51.650;-0.522;2023-02-28T15:01:03;5.60;;;1.80;;
68910;SDS011;55953;51.650;-0.522;2023-02-28T15:06:15;7.70;;;2.50;;
68910;SDS011;55953;51.650;-0.522;2023-02-28T15:08:45;4.00;;;1.20;;
68910;SDS011;55953;51.650;-0.522;2023-02-28T15:11:17;4.70;;;1.60;;
68910;SDS011;55953;51.650;-0.522;2023-02-28T15:13:51;6.30;;;2.00;;
68910;SDS011;55953;51.650;-0.522;2023-02-28T15:16:26;6.60;;;2.00;;
68910;SDS011;55953;51.650;-0.522;2023-02-28T15:19:05;3.10;;;1.40;;
68910;SDS011;55953;51.650;-0.522;2023-02-28T15:21:43;3.30;;;1.50;;
68910;SDS011;55953;51.650;-0.522;2023-02-28T15:24:27;2.70;;;1.50;;
68910;SDS011;55953;51.650;-0.522;2023-02-28T15:27:00;6.50;;;1.70;;
68910;SDS011;55953;51.650;-0.522;2023-02-28T15:29:36;3.50;;;1.70;;
68910;SDS011;55953;51.650;-0.522;2023-02-28T15:32:30;5.80;;;2.10;;
68910;SDS011;55953;51.650;-0.522;2023-02-28T15:37:55;2.70;;;1.00;;
68910;SDS011;55953;51.650;-0.522;2023-02-28T15:40:57;1.60;;;0.80;;
68910;SDS011;55953;51.650;-0.522;2023-02-28T15:45:58;5.60;;;1.50;;
68910;SDS011;55953;51.650;-0.522;2023-02-28T15:49:12;6.70;;;2.40;;
68910;SDS011;55953;51.650;-0.522;2023-02-28T15:51:30;3.20;;;1.30;;
68910;SDS011;55953;51.650;-0.522;2023-02-28T15:54:05;3.80;;;1.10;;
68910;SDS011;55953;51.650;-0.522;2023-02-28T15:56:43;5.20;;;1.20;;
68910;SDS011;55953;51.650;-0.522;2023-02-28T15:59:31;1.80;;;1.00;;
68910;SDS011;55953;51.650;-0.522;2023-02-28T16:07:37;2.70;;;1.00;;
68910;SDS011;55953;51.650;-0.522;2023-02-28T16:10:11;2.60;;;0.80;;
68910;SDS011;55953;51.650;-0.522;2023-02-28T16:12:41;1.70;;;0.90;;
68910;SDS011;55953;51.650;-0.522;2023-02-28T16:15:27;1.20;;;0.80;;
68910;SDS011;55953;51.650;-0.522;2023-02-28T16:17:57;2.10;;;1.30;;
68910;SDS011;55953;51.650;-0.522;2023-02-28T16:20:28;5.00;;;1.60;;
68910;SDS011;55953;51.650;-0.522;2023-02-28T16:22:57;2.80;;;1.00;;
68910;SDS011;55953;51.650;-0.522;2023-02-28T16:28:18;5.20;;;1.40;;
68910;SDS011;55953;51.650;-0.522;2023-02-28T16:30:53;3.40;;;1.10;;
68910;SDS011;55953;51.650;-0.522;2023-02-28T16:33:21;5.70;;;1.70;;
68910;SDS011;55953;51.650;-0.522;2023-02-28T16:35:49;3.70;;;1.40;;
68910;SDS011;55953;51.650;-0.522;2023-02-28T16:38:17;8.50;;;2.90;;
68910;SDS011;55953;51.650;-0.522;2023-02-28T16:40:45;5.60;;;2.30;;
68910;SDS011;55953;51.650;-0.522;2023-02-28T16:43:18;11.30;;;3.90;;
68910;SDS011;55953;51.650;-0.522;2023-02-28T16:45:56;6.30;;;3.00;;
68910;SDS011;55953;51.650;-0.522;2023-02-28T16:48:28;4.80;;;2.30;;
68910;SDS011;55953;51.650;-0.522;2023-02-28T16:50:58;7.60;;;3.60;;
68910;SDS011;55953;51.650;-0.522;2023-02-28T16:53:25;8.40;;;3.50;;
68910;SDS011;55953;51.650;-0.522;2023-02-28T16:55:53;5.50;;;2.70;;
68910;SDS011;55953;51.650;-0.522;2023-02-28T16:58:22;5.10;;;1.60;;
68910;SDS011;55953;51.650;-0.522;2023-02-28T17:00:52;5.60;;;2.00;;
68910;SDS011;55953;51.650;-0.522;2023-02-28T17:03:23;3.20;;;1.70;;
68910;SDS011;55953;51.650;-0.522;2023-02-28T17:06:00;1.90;;;1.10;;
68910;SDS011;55953;51.650;-0.522;2023-02-28T17:08:30;1.90;;;0.80;;
68910;SDS011;55953;51.650;-0.522;2023-02-28T17:10:59;0.90;;;0.60;;
68910;SDS011;55953;51.650;-0.522;2023-02-28T17:13:29;0.70;;;0.60;;
68910;SDS011;55953;51.650;-0.522;2023-02-28T17:15:57;2.80;;;1.20;;
68910;SDS011;55953;51.650;-0.522;2023-02-28T17:18:25;4.00;;;1.40;;
68910;SDS011;55953;51.650;-0.522;2023-02-28T17:20:54;4.50;;;1.50;;
68910;SDS011;55953;51.650;-0.522;2023-02-28T17:23:21;3.40;;;1.20;;
68910;SDS011;55953;51.650;-0.522;2023-02-28T17:25:49;3.20;;;1.10;;
68910;SDS011;55953;51.650;-0.522;2023-02-28T17:28:23;2.70;;;1.10;;
68910;SDS011;55953;51.650;-0.522;2023-02-28T17:30:51;4.40;;;1.40;;
68910;SDS011;55953;51.650;-0.522;2023-02-28T17:33:19;3.60;;;1.20;;
68910;SDS011;55953;51.650;-0.522;2023-02-28T17:35:47;2.40;;;1.10;;
68910;SDS011;55953;51.650;-0.522;2023-02-28T17:38:17;1.50;;;0.90;;